createdAt,value
2019-05-16T00:00:24.979Z,11.10
2019-05-16T00:02:51.845Z,11.10
2019-05-16T00:05:19.101Z,11.20
2019-05-16T00:07:45.984Z,11.20
2019-05-16T00:10:14.059Z,11.10
2019-05-16T00:12:40.814Z,11.10
2019-05-16T00:15:08.971Z,11.10
2019-05-16T00:17:38.296Z,11.20
2019-05-16T00:20:05.345Z,11.10
2019-05-16T00:22:32.083Z,11.10
2019-05-16T00:24:58.860Z,11.20
2019-05-16T00:27:27.895Z,11.20
2019-05-16T00:29:54.579Z,11.20
2019-05-16T00:32:21.444Z,11.20
2019-05-16T00:34:48.185Z,11.20
2019-05-16T00:37:14.967Z,11.20
2019-05-16T00:39:41.711Z,11.20
2019-05-16T00:42:08.969Z,11.20
2019-05-16T00:44:35.887Z,11.20
2019-05-16T00:47:02.822Z,11.20
2019-05-16T00:49:29.896Z,11.20
2019-05-16T00:51:58.428Z,11.10
2019-05-16T00:54:27.722Z,11.10
2019-05-16T00:56:54.611Z,11.10
2019-05-16T00:59:21.848Z,11.10
2019-05-16T01:01:50.013Z,11.10
2019-05-16T01:04:18.224Z,11.00
2019-05-16T01:06:45.198Z,11.00
2019-05-16T01:09:12.127Z,10.90
2019-05-16T01:11:38.881Z,11.00
2019-05-16T01:14:05.853Z,10.90
2019-05-16T01:16:32.691Z,10.90
2019-05-16T01:18:59.695Z,10.90
2019-05-16T01:21:28.579Z,10.80
2019-05-16T01:23:55.348Z,10.80
2019-05-16T01:26:22.194Z,10.80
2019-05-16T01:28:49.048Z,10.80
2019-05-16T01:31:15.883Z,10.70
2019-05-16T01:33:42.883Z,10.70
2019-05-16T01:36:09.807Z,10.70
2019-05-16T01:38:38.852Z,10.60
2019-05-16T01:41:05.470Z,10.60
2019-05-16T01:43:32.307Z,10.50
2019-05-16T01:45:59.192Z,10.40
2019-05-16T01:48:26.108Z,10.40
2019-05-16T01:50:52.881Z,10.40
2019-05-16T01:53:19.736Z,10.10
2019-05-16T01:55:48.617Z,10.30
2019-05-16T01:58:15.539Z,10.20
2019-05-16T02:00:52.487Z,10.20
2019-05-16T02:03:11.221Z,10.30
2019-05-16T02:05:38.698Z,10.10
2019-05-16T02:08:06.006Z,10.10
2019-05-16T02:10:33.048Z,10.00
2019-05-16T02:12:59.803Z,10.00
2019-05-16T02:15:28.612Z,9.90
2019-05-16T02:17:55.611Z,10.00
2019-05-16T02:20:22.352Z,10.00
2019-05-16T02:22:49.222Z,9.90
2019-05-16T02:25:18.473Z,9.90
2019-05-16T02:27:45.159Z,9.90
2019-05-16T02:30:13.932Z,9.90
2019-05-16T02:32:41.672Z,9.90
2019-05-16T02:35:11.818Z,9.90
2019-05-16T02:37:41.725Z,9.90
2019-05-16T02:40:11.634Z,9.90
2019-05-16T02:43:01.485Z,9.90
2019-05-16T02:45:27.340Z,9.90
2019-05-16T02:47:56.115Z,9.90
2019-05-16T02:50:23.128Z,9.90
2019-05-16T02:52:51.668Z,9.90
2019-05-16T02:55:21.378Z,9.90
2019-05-16T02:57:47.652Z,9.90
2019-05-16T03:00:20.905Z,10.00
2019-05-16T03:02:50.374Z,9.90
2019-05-16T03:05:16.443Z,10.00
2019-05-16T03:07:47.025Z,10.00
2019-05-16T03:10:13.401Z,10.00
2019-05-16T03:12:43.593Z,10.00
2019-05-16T03:15:12.804Z,10.10
2019-05-16T03:17:44.149Z,9.90
2019-05-16T03:20:12.517Z,9.90
2019-05-16T03:23:02.219Z,10.00
2019-05-16T03:25:31.041Z,10.00
2019-05-16T03:27:57.801Z,10.00
2019-05-16T03:30:24.805Z,10.00
2019-05-16T03:32:54.661Z,10.00
2019-05-16T03:35:24.589Z,10.10
2019-05-16T03:37:55.541Z,10.00
2019-05-16T03:40:26.334Z,10.00
2019-05-16T03:42:53.447Z,10.10
2019-05-16T03:45:21.342Z,10.10
2019-05-16T03:47:51.102Z,10.00
2019-05-16T03:50:17.212Z,10.00
2019-05-16T03:52:44.099Z,10.00
2019-05-16T03:55:11.601Z,10.10
2019-05-16T03:57:41.494Z,10.10
2019-05-16T04:00:11.404Z,10.10
2019-05-16T04:02:36.886Z,10.20
2019-05-16T04:05:03.996Z,10.10
2019-05-16T04:07:31.781Z,10.10
2019-05-16T04:10:02.238Z,10.10
2019-05-16T04:12:30.786Z,10.10
2019-05-16T04:14:57.084Z,10.10
2019-05-16T04:17:23.821Z,10.10
2019-05-16T04:19:51.010Z,10.10
2019-05-16T04:22:21.268Z,10.10
2019-05-16T04:24:46.875Z,10.10
2019-05-16T04:27:14.012Z,10.20
2019-05-16T04:29:41.056Z,10.20
2019-05-16T04:32:10.868Z,10.30
2019-05-16T04:34:36.760Z,10.30
2019-05-16T04:37:03.805Z,10.20
2019-05-16T04:39:31.834Z,10.30
2019-05-16T04:42:01.612Z,10.30
2019-05-16T04:44:31.071Z,10.30
2019-05-16T04:46:56.954Z,10.40
2019-05-16T04:49:23.956Z,10.40
2019-05-16T04:51:51.734Z,10.40
2019-05-16T04:54:21.589Z,10.40
2019-05-16T04:56:47.580Z,10.40
2019-05-16T04:59:16.725Z,10.50
2019-05-16T05:01:43.192Z,10.50
2019-05-16T05:04:14.376Z,10.50
2019-05-16T05:06:40.589Z,10.60
2019-05-16T05:09:07.515Z,10.50
2019-05-16T05:11:34.463Z,10.50
2019-05-16T05:14:01.212Z,10.50
2019-05-16T05:16:30.489Z,10.60
2019-05-16T05:18:56.859Z,10.60
2019-05-16T05:21:23.602Z,10.70
2019-05-16T05:23:50.830Z,10.70
2019-05-16T05:26:19.993Z,10.70
2019-05-16T05:28:46.914Z,10.70
2019-05-16T05:31:13.904Z,10.60
2019-05-16T05:33:41.567Z,10.80
2019-05-16T05:36:11.964Z,11.00
2019-05-16T05:38:40.093Z,10.90
2019-05-16T05:41:06.322Z,11.10
2019-05-16T05:43:33.224Z,11.00
2019-05-16T05:46:00.803Z,11.20
2019-05-16T05:48:30.571Z,11.20
2019-05-16T05:50:56.533Z,11.20
2019-05-16T05:53:23.414Z,11.30
2019-05-16T05:55:51.189Z,11.40
2019-05-16T05:58:20.580Z,11.50
2019-05-16T06:00:47.475Z,11.50
2019-05-16T06:03:14.351Z,11.40
2019-05-16T06:05:41.404Z,11.40
2019-05-16T06:08:10.519Z,11.40
2019-05-16T06:10:37.156Z,11.40
2019-05-16T06:13:04.004Z,11.30
2019-05-16T06:15:30.979Z,11.40
2019-05-16T06:18:00.049Z,11.40
2019-05-16T06:20:26.723Z,11.50
2019-05-16T06:22:53.595Z,11.60
2019-05-16T06:25:22.961Z,11.70
2019-05-16T06:27:51.159Z,11.80
2019-05-16T06:30:20.632Z,11.90
2019-05-16T06:32:46.707Z,11.80
2019-05-16T06:35:13.798Z,11.90
2019-05-16T06:37:40.906Z,12.10
2019-05-16T06:40:10.722Z,12.30
2019-05-16T06:42:37.319Z,12.40
2019-05-16T06:45:04.603Z,12.50
2019-05-16T06:47:31.397Z,12.70
2019-05-16T06:50:00.222Z,12.70
2019-05-16T06:52:27.287Z,12.60
2019-05-16T06:54:54.051Z,12.70
2019-05-16T06:57:20.907Z,12.60
2019-05-16T06:59:49.876Z,12.40
2019-05-16T07:02:27.811Z,12.40
2019-05-16T07:04:45.300Z,12.30
2019-05-16T07:07:12.831Z,12.30
2019-05-16T07:09:41.817Z,12.40
2019-05-16T07:12:10.467Z,12.60
2019-05-16T07:14:37.303Z,12.60
2019-05-16T07:17:04.246Z,12.60
2019-05-16T07:19:31.117Z,12.70
2019-05-16T07:21:59.809Z,13.20
2019-05-16T07:24:26.654Z,13.40
2019-05-16T07:26:53.687Z,13.60
2019-05-16T07:29:20.563Z,13.80
2019-05-16T07:31:47.519Z,14.10
2019-05-16T07:34:14.757Z,14.30
2019-05-16T07:36:41.694Z,14.60
2019-05-16T07:39:10.847Z,14.90
2019-05-16T07:41:37.171Z,16.10
2019-05-16T07:44:04.163Z,16.20
2019-05-16T07:46:31.539Z,15.90
2019-05-16T07:49:01.218Z,15.90
2019-05-16T07:51:27.488Z,15.70
2019-05-16T07:53:54.502Z,15.80
2019-05-16T07:56:21.319Z,16.30
2019-05-16T07:58:50.496Z,16.30
2019-05-16T08:01:17.082Z,16.60
2019-05-16T08:03:44.303Z,16.40
2019-05-16T08:06:11.307Z,16.30
2019-05-16T08:08:40.345Z,16.30
2019-05-16T08:11:06.980Z,16.10
2019-05-16T08:13:33.867Z,15.80
2019-05-16T08:18:30.358Z,16.10
2019-05-16T08:21:00.193Z,16.20
2019-05-16T08:23:26.118Z,15.90
2019-05-16T08:25:52.874Z,15.50
2019-05-16T08:30:51.492Z,16.40
2019-05-16T08:33:17.277Z,17.00
2019-05-16T08:35:44.322Z,17.90
2019-05-16T08:38:13.501Z,18.10
2019-05-16T08:41:01.088Z,18.50
2019-05-16T08:43:11.800Z,19.10
2019-05-16T08:45:41.569Z,19.20
2019-05-16T08:48:06.935Z,19.40
2019-05-16T08:50:04.936Z,15.70
2019-05-16T08:50:34.986Z,18.90
2019-05-16T08:53:02.935Z,19.70
2019-05-16T08:55:31.298Z,20.00
2019-05-16T08:58:01.313Z,19.90
2019-05-16T09:00:27.403Z,19.70
2019-05-16T09:02:54.436Z,19.80
2019-05-16T09:05:22.686Z,20.20
2019-05-16T09:07:49.932Z,20.90
2019-05-16T09:10:10.717Z,16.00
2019-05-16T09:12:47.745Z,21.10
2019-05-16T09:15:17.056Z,21.70
2019-05-16T09:17:43.483Z,21.20
2019-05-16T09:20:10.647Z,21.70
2019-05-16T09:22:38.031Z,21.30
2019-05-16T09:25:08.094Z,21.80
2019-05-16T09:27:34.670Z,22.40
2019-05-16T09:30:01.483Z,22.20
2019-05-16T09:32:28.354Z,22.90
2019-05-16T09:35:03.859Z,23.10
2019-05-16T09:37:26.583Z,22.60
2019-05-16T09:39:53.046Z,23.60
2019-05-16T09:42:20.007Z,24.20
2019-05-16T09:44:47.553Z,23.60
2019-05-16T09:47:17.593Z,22.70
2019-05-16T09:49:43.901Z,21.60
2019-05-16T09:52:11.019Z,20.40
2019-05-16T09:54:38.110Z,20.50
2019-05-16T09:57:06.548Z,19.90
2019-05-16T09:59:33.556Z,18.70
2019-05-16T10:02:00.284Z,17.90
2019-05-16T10:04:27.285Z,17.60
2019-05-16T10:06:57.024Z,17.00
2019-05-16T10:09:37.777Z,17.30
2019-05-16T10:12:06.922Z,17.40
2019-05-16T10:14:20.818Z,17.60
2019-05-16T10:16:47.943Z,17.90
2019-05-16T10:19:16.885Z,17.90
2019-05-16T10:21:43.649Z,17.70
2019-05-16T10:24:10.515Z,17.70
2019-05-16T10:26:37.328Z,18.50
2019-05-16T10:29:10.460Z,18.40
2019-05-16T10:31:44.892Z,18.10
2019-05-16T10:34:01.861Z,17.80
2019-05-16T10:36:28.759Z,17.70
2019-05-16T10:38:58.993Z,18.50
2019-05-16T10:41:24.583Z,20.00
2019-05-16T10:43:51.521Z,20.80
2019-05-16T10:46:18.298Z,20.70
2019-05-16T10:48:46.924Z,21.30
2019-05-16T10:51:13.985Z,21.90
2019-05-16T10:54:02.527Z,21.80
2019-05-16T10:56:09.855Z,21.80
2019-05-16T10:58:51.701Z,22.60
2019-05-16T11:01:19.559Z,22.70
2019-05-16T11:03:34.651Z,23.10
2019-05-16T11:06:05.799Z,22.90
2019-05-16T11:08:30.575Z,21.70
2019-05-16T11:10:57.398Z,20.80
2019-05-16T11:13:24.496Z,21.50
2019-05-16T11:15:51.211Z,21.80
2019-05-16T11:18:18.195Z,21.20
2019-05-16T11:20:48.939Z,21.40
2019-05-16T11:23:13.751Z,21.60
2019-05-16T11:25:40.524Z,22.00
2019-05-16T11:28:07.544Z,23.10
2019-05-16T11:30:37.330Z,23.60
2019-05-16T11:33:03.274Z,24.10
2019-05-16T11:35:30.133Z,23.60
2019-05-16T11:37:57.146Z,23.10
2019-05-16T11:40:24.980Z,22.90
2019-05-16T11:43:05.659Z,22.80
2019-05-16T11:45:21.007Z,22.70
2019-05-16T11:47:47.886Z,22.10
2019-05-16T11:50:17.767Z,22.30
2019-05-16T11:52:43.837Z,21.50
2019-05-16T11:55:10.988Z,20.60
2019-05-16T11:57:38.110Z,19.60
2019-05-16T12:00:07.964Z,19.20
2019-05-16T12:02:37.368Z,19.20
2019-05-16T12:05:04.362Z,20.20
2019-05-16T12:07:32.984Z,20.20
2019-05-16T12:09:59.953Z,20.00
2019-05-16T12:12:27.148Z,19.60
2019-05-16T12:14:55.960Z,19.70
2019-05-16T12:17:27.821Z,19.50
2019-05-16T12:19:52.899Z,19.50
2019-05-16T12:22:20.079Z,19.60
2019-05-16T12:24:47.734Z,19.60
2019-05-16T12:27:16.772Z,19.60
2019-05-16T12:29:43.521Z,19.60
2019-05-16T12:32:10.350Z,19.40
2019-05-16T12:34:37.250Z,19.50
2019-05-16T12:37:04.116Z,19.70
2019-05-16T12:39:30.866Z,19.50
2019-05-16T12:41:59.163Z,19.40
2019-05-16T12:44:26.982Z,19.30
2019-05-16T12:46:56.773Z,19.00
2019-05-16T12:49:22.784Z,18.90
2019-05-16T12:51:49.603Z,18.70
2019-05-16T12:54:18.252Z,18.70
2019-05-16T12:56:47.952Z,19.00
2019-05-16T12:59:20.437Z,19.00
2019-05-16T13:01:42.880Z,19.10
2019-05-16T13:04:12.540Z,19.20
2019-05-16T13:06:38.645Z,19.60
2019-05-16T13:09:07.037Z,19.20
2019-05-16T13:11:33.907Z,19.20
2019-05-16T13:14:06.477Z,19.20
2019-05-16T13:16:29.767Z,18.90
2019-05-16T13:18:56.758Z,18.60
2019-05-16T13:21:23.764Z,18.60
2019-05-16T13:23:51.364Z,18.10
2019-05-16T13:26:18.262Z,17.90
2019-05-16T13:28:47.544Z,17.80
2019-05-16T13:31:16.928Z,17.40
2019-05-16T13:33:42.992Z,17.40
2019-05-16T13:36:09.831Z,17.50
2019-05-16T13:38:36.596Z,17.60
2019-05-16T13:41:03.674Z,17.20
2019-05-16T13:43:30.635Z,17.10
2019-05-16T13:45:57.740Z,16.80
2019-05-16T13:48:26.758Z,16.50
2019-05-16T13:51:08.359Z,16.20
2019-05-16T13:53:22.390Z,16.00
2019-05-16T13:55:49.241Z,16.00
2019-05-16T13:58:17.818Z,16.00
2019-05-16T14:00:47.839Z,16.00
2019-05-16T14:03:13.885Z,16.00
2019-05-16T14:05:40.735Z,15.90
2019-05-16T14:08:07.530Z,15.80
2019-05-16T14:10:37.191Z,15.70
2019-05-16T14:13:03.392Z,15.70
2019-05-16T14:15:30.325Z,15.60
2019-05-16T14:17:57.182Z,15.30
2019-05-16T14:20:24.139Z,15.50
2019-05-16T14:22:51.015Z,15.30
2019-05-16T14:25:17.912Z,15.20
2019-05-16T14:27:47.346Z,15.20
2019-05-16T14:30:13.839Z,15.20
2019-05-16T14:32:43.551Z,14.80
2019-05-16T14:35:09.975Z,14.60
2019-05-16T14:37:37.910Z,14.70
2019-05-16T14:40:06.160Z,14.50
2019-05-16T14:42:33.153Z,14.60
2019-05-16T14:45:11.162Z,14.40
2019-05-16T14:47:28.935Z,14.50
2019-05-16T14:49:55.758Z,14.60
2019-05-16T14:52:22.460Z,14.30
2019-05-16T14:54:49.265Z,14.20
2019-05-16T14:57:16.676Z,14.20
2019-05-16T14:59:43.835Z,14.10
2019-05-16T15:02:10.771Z,14.00
2019-05-16T15:04:37.798Z,13.90
2019-05-16T15:07:07.005Z,13.90
2019-05-16T15:09:33.845Z,13.60
2019-05-16T15:12:00.570Z,13.60
2019-05-16T15:14:28.133Z,13.40
2019-05-16T15:16:57.437Z,13.30
2019-05-16T15:19:23.848Z,13.20
2019-05-16T15:21:50.660Z,13.20
2019-05-16T15:24:17.958Z,13.10
2019-05-16T15:26:47.293Z,13.10
2019-05-16T15:29:16.363Z,13.00
2019-05-16T15:31:42.528Z,12.90
2019-05-16T15:34:09.484Z,12.80
2019-05-16T15:36:37.299Z,12.60
2019-05-16T15:39:08.007Z,12.80
2019-05-16T15:41:36.674Z,12.90
2019-05-16T15:44:04.019Z,12.80
2019-05-16T15:46:30.876Z,12.80
2019-05-16T15:49:00.461Z,12.80
2019-05-16T15:51:27.392Z,12.90
2019-05-16T15:53:57.094Z,13.00
2019-05-16T15:56:26.949Z,12.90
2019-05-16T15:58:53.142Z,13.10
2019-05-16T16:01:20.229Z,13.10
2019-05-16T16:03:47.515Z,13.00
2019-05-16T16:06:14.578Z,13.00
2019-05-16T16:08:41.382Z,12.70
2019-05-16T16:11:09.395Z,12.80
2019-05-16T16:13:37.375Z,12.60
2019-05-16T16:16:09.150Z,12.60
2019-05-16T16:18:33.613Z,12.60
2019-05-16T16:21:00.653Z,12.80
2019-05-16T16:23:27.606Z,12.70
2019-05-16T16:25:59.278Z,12.50
2019-05-16T16:28:23.495Z,12.50
2019-05-16T16:30:50.356Z,12.30
2019-05-16T16:33:25.514Z,12.20
2019-05-16T16:35:47.934Z,12.20
2019-05-16T16:38:16.968Z,12.30
2019-05-16T16:40:44.153Z,12.30
2019-05-16T16:43:11.151Z,12.30
2019-05-16T16:45:38.116Z,12.40
2019-05-16T16:48:07.602Z,12.30
2019-05-16T16:50:33.751Z,12.10
2019-05-16T16:53:00.724Z,12.10
2019-05-16T16:55:28.766Z,12.00
2019-05-16T16:57:59.001Z,11.60
2019-05-16T17:00:27.730Z,11.70
2019-05-16T17:03:03.338Z,11.50
2019-05-16T17:05:22.194Z,11.50
2019-05-16T17:07:49.075Z,11.40
2019-05-16T17:10:16.963Z,11.40
2019-05-16T17:12:46.693Z,11.30
2019-05-16T17:15:17.114Z,11.20
2019-05-16T17:17:46.487Z,11.20
2019-05-16T17:20:13.303Z,11.20
2019-05-16T17:22:40.044Z,11.30
2019-05-16T17:25:07.659Z,11.30
2019-05-16T17:27:37.320Z,11.40
2019-05-16T17:30:07.473Z,11.50
2019-05-16T17:32:34.223Z,11.40
2019-05-16T17:35:01.051Z,11.40
2019-05-16T17:37:27.920Z,11.40
2019-05-16T17:39:56.810Z,11.40
2019-05-16T17:42:23.791Z,11.40
2019-05-16T17:44:50.758Z,11.30
2019-05-16T17:47:17.870Z,11.20
2019-05-16T17:49:46.250Z,11.20
2019-05-16T17:52:13.351Z,11.10
2019-05-16T17:54:40.197Z,11.10
2019-05-16T17:57:07.448Z,11.20
2019-05-16T17:59:34.786Z,11.00
2019-05-16T18:02:01.796Z,11.20
2019-05-16T18:04:28.804Z,11.20
2019-05-16T18:06:57.698Z,11.20
2019-05-16T18:09:24.583Z,11.20
2019-05-16T18:11:51.428Z,11.20
2019-05-16T18:14:18.189Z,11.10
2019-05-16T18:16:53.510Z,11.10
2019-05-16T18:19:13.844Z,11.00
2019-05-16T18:21:40.827Z,11.10
2019-05-16T18:24:07.711Z,11.00
2019-05-16T18:26:37.362Z,11.00
2019-05-16T18:29:06.711Z,10.90
2019-05-16T18:31:33.151Z,11.10
2019-05-16T18:33:59.891Z,11.00
2019-05-16T18:36:26.841Z,11.00
2019-05-16T18:38:53.715Z,11.00
2019-05-16T18:41:20.695Z,10.90
2019-05-16T18:43:47.639Z,10.90
2019-05-16T18:46:16.246Z,10.80
2019-05-16T18:48:43.508Z,10.80
2019-05-16T18:51:10.381Z,10.80
2019-05-16T18:53:37.636Z,10.80
2019-05-16T18:56:04.908Z,10.80
2019-05-16T18:58:32.011Z,10.70
2019-05-16T19:00:58.923Z,10.70
2019-05-16T19:03:27.088Z,9.60
2019-05-16T19:05:54.159Z,10.70
2019-05-16T19:08:20.933Z,10.70
2019-05-16T19:10:48.172Z,10.60
2019-05-16T19:13:16.858Z,10.60
2019-05-16T19:15:48.955Z,10.60
2019-05-16T19:18:12.768Z,10.50
2019-05-16T19:20:39.882Z,10.50
2019-05-16T19:23:07.623Z,10.40
2019-05-16T19:25:34.766Z,10.40
2019-05-16T19:28:01.634Z,10.40
2019-05-16T19:30:28.567Z,10.40
2019-05-16T19:32:57.492Z,10.30
2019-05-16T19:35:27.305Z,10.30
2019-05-16T19:37:53.290Z,10.30
2019-05-16T19:40:20.468Z,10.20
2019-05-16T19:42:47.458Z,10.10
2019-05-16T19:45:16.915Z,10.20
2019-05-16T19:47:43.581Z,10.20
2019-05-16T19:50:11.119Z,10.10
2019-05-16T19:52:38.103Z,10.10
2019-05-16T19:55:07.134Z,10.10
2019-05-16T19:57:34.375Z,10.10
2019-05-16T20:00:01.342Z,10.10
2019-05-16T20:02:28.307Z,10.10
2019-05-16T20:04:56.250Z,10.10
2019-05-16T20:07:23.399Z,10.20
2019-05-16T20:09:50.144Z,10.00
2019-05-16T20:12:17.061Z,10.10
2019-05-16T20:14:44.055Z,10.10
2019-05-16T20:17:10.955Z,10.10
2019-05-16T20:19:37.872Z,10.00
2019-05-16T20:22:04.808Z,10.10
2019-05-16T20:24:31.741Z,10.10
2019-05-16T20:26:59.082Z,10.10
2019-05-16T20:29:27.378Z,10.10
2019-05-16T20:31:56.832Z,10.10
2019-05-16T20:34:23.591Z,10.00
2019-05-16T20:36:51.567Z,10.00
2019-05-16T20:39:18.576Z,10.00
2019-05-16T20:41:47.449Z,10.10
2019-05-16T20:44:14.363Z,10.10
2019-05-16T20:46:41.231Z,10.10
2019-05-16T20:49:08.193Z,10.10
2019-05-16T20:51:37.482Z,10.10
2019-05-16T20:54:06.930Z,10.10
2019-05-16T20:56:33.335Z,10.10
2019-05-16T20:59:00.813Z,10.10
2019-05-16T21:01:28.006Z,10.10
2019-05-16T21:03:57.180Z,10.10
2019-05-16T21:06:26.331Z,10.00
2019-05-16T21:08:53.273Z,10.10
2019-05-16T21:11:20.141Z,10.00
2019-05-16T21:13:49.009Z,10.00
2019-05-16T21:16:16.394Z,9.90
2019-05-16T21:18:43.404Z,9.90
2019-05-16T21:21:10.483Z,9.90
2019-05-16T21:23:37.434Z,9.90
2019-05-16T21:26:04.371Z,9.90
2019-05-16T21:28:31.393Z,9.90
2019-05-16T21:30:58.447Z,9.80
2019-05-16T21:33:27.334Z,9.90
2019-05-16T21:35:56.382Z,9.80
2019-05-16T21:38:22.930Z,9.80
2019-05-16T21:40:49.963Z,9.80
2019-05-16T21:43:16.948Z,9.80
2019-05-16T21:45:44.011Z,10.00
2019-05-16T21:48:10.879Z,9.90
2019-05-16T21:50:37.943Z,9.90
2019-05-16T21:53:07.072Z,9.90
2019-05-16T21:55:36.306Z,9.90
2019-05-16T21:58:03.327Z,9.90
2019-05-16T22:00:37.646Z,9.90
2019-05-16T22:03:05.120Z,9.90
2019-05-16T22:05:32.076Z,9.90
2019-05-16T22:07:58.963Z,9.90
2019-05-16T22:10:26.630Z,9.80
2019-05-16T22:12:53.601Z,9.80
2019-05-16T22:15:20.589Z,9.80
2019-05-16T22:17:47.358Z,9.80
2019-05-16T22:20:16.375Z,9.80
2019-05-16T22:22:43.063Z,9.80
2019-05-16T22:25:10.267Z,9.80
2019-05-16T22:27:37.236Z,10.00
2019-05-16T22:30:08.981Z,9.90
2019-05-16T22:32:36.375Z,9.90
2019-05-16T22:35:03.652Z,9.90
2019-05-16T22:37:30.499Z,9.80
2019-05-16T22:39:59.710Z,9.80
2019-05-16T22:42:26.777Z,9.80
2019-05-16T22:44:53.791Z,9.90
2019-05-16T22:47:20.878Z,9.90
2019-05-16T22:49:47.860Z,9.80
2019-05-16T22:52:14.573Z,9.80
2019-05-16T22:54:41.335Z,9.90
2019-05-16T22:57:08.350Z,9.80
2019-05-16T22:59:35.089Z,9.80
2019-05-16T23:02:03.757Z,9.90
2019-05-16T23:04:30.503Z,9.90
2019-05-16T23:06:57.264Z,10.00
2019-05-16T23:09:24.273Z,9.80
2019-05-16T23:11:51.023Z,9.90
2019-05-16T23:14:17.974Z,9.90
2019-05-16T23:16:46.454Z,9.80
2019-05-16T23:19:13.384Z,9.80
2019-05-16T23:21:40.126Z,9.80
2019-05-16T23:24:06.986Z,9.80
2019-05-16T23:26:36.227Z,9.80
2019-05-16T23:29:02.999Z,9.80
2019-05-16T23:31:29.752Z,9.80
2019-05-16T23:33:56.615Z,9.80
2019-05-16T23:36:23.621Z,9.80
2019-05-16T23:38:50.483Z,9.80
2019-05-16T23:41:17.431Z,9.80
2019-05-16T23:43:44.404Z,9.80
2019-05-16T23:46:11.195Z,9.90
2019-05-16T23:48:38.098Z,9.80
2019-05-16T23:51:07.497Z,9.80
2019-05-16T23:53:33.675Z,9.80
2019-05-16T23:56:00.687Z,9.80
2019-05-16T23:58:27.696Z,9.80
